Sao Bento do Sul, Brazil
Current Conditions -  °F | °C
As of 11:00 PM on Wednesday 26 Nov 2014 (Local Time) from SBJV Reporting Station
Overcast Overcast  
Wind Chill: 77°   Ceiling: 1500
Heat Index: 78°   Visibility: 5mi
Dew Point: 72°   Wind: 6mph
Humidity: 83%   Direction: 110°ESE
Pressure: 29.85"   Gusts: NA
Location:  26.25°S, 49.38°W
Report Text: SBJV 270100Z 11005KT 8000 OVC015 25/22 Q1011
Loading
Personal Weather Stations






























Interactive Weather Map New forecast layout! Learn more

10-Day Weather Forecast

Advertisements
Track Severe Weather on mobile